Time;durP1;ratioP1;P1;durP2;ratioP2;P2;SDS_P1;SDS_P2;PMS_P1;PMS_P2;Temp;Humidity;BMP_temperature;BMP_pressure;BME280_temperature;BME280_humidity;BME280_pressure;Samples;Min_cycle;Max_cycle;Signal;HPM_P1;HPM_P2
2021/03/14 00:01:31;;;;;;;6.43;1.00;;;;;;;;;;5033084;28;20044;-56
2021/03/14 00:03:57;;;;;;;7.80;1.00;;;;;;;;;;5032614;28;20086;-54
2021/03/14 00:06:23;;;;;;;7.85;1.10;;;;;;;;;;5033486;28;20067;-55
2021/03/14 00:08:49;;;;;;;3.80;0.70;;;;;;;;;;5036017;28;20041;-54
2021/03/14 00:11:15;;;;;;;5.75;1.08;;;;;;;;;;5036168;28;20048;-57
2021/03/14 00:13:40;;;;;;;6.18;1.30;;;;;;;;;;5011290;28;20045;-56
2021/03/14 00:16:07;;;;;;;6.88;0.80;;;;;;;;;;5036273;28;20025;-53
2021/03/14 00:18:35;;;;;;;8.80;1.10;;;;;;;;;;5034818;28;20132;-54
2021/03/14 00:21:01;;;;;;;11.73;1.17;;;;;;;;;;5037218;28;20037;-52
2021/03/14 00:23:27;;;;;;;6.95;1.10;;;;;;;;;;5012420;28;20052;-52
2021/03/14 00:25:53;;;;;;;6.25;0.75;;;;;;;;;;5037029;28;20042;-56
2021/03/14 00:28:20;;;;;;;3.53;0.90;;;;;;;;;;5034387;28;20405;-54
2021/03/14 00:30:46;;;;;;;3.75;0.90;;;;;;;;;;5034823;28;20041;-56
2021/03/14 00:33:12;;;;;;;12.30;1.00;;;;;;;;;;5036838;28;20240;-56
2021/03/14 00:35:38;;;;;;;4.35;0.80;;;;;;;;;;5034794;28;20049;-56
2021/03/14 00:38:04;;;;;;;6.22;0.90;;;;;;;;;;5035856;28;20414;-56
2021/03/14 00:40:30;;;;;;;7.80;0.90;;;;;;;;;;5035352;28;20498;-56
2021/03/14 00:42:57;;;;;;;6.82;1.00;;;;;;;;;;5033923;28;20386;-56
2021/03/14 00:45:23;;;;;;;8.60;0.80;;;;;;;;;;5035334;28;20041;-54
2021/03/14 00:47:49;;;;;;;7.18;0.82;;;;;;;;;;5035700;28;20041;-55
2021/03/14 00:50:15;;;;;;;5.75;0.93;;;;;;;;;;5036821;28;20045;-54
2021/03/14 00:52:41;;;;;;;7.07;0.85;;;;;;;;;;5032395;28;20653;-56
2021/03/14 00:55:07;;;;;;;5.78;1.02;;;;;;;;;;5017353;28;20114;-55
2021/03/14 00:57:33;;;;;;;6.50;0.88;;;;;;;;;;5031795;28;20099;-55
2021/03/14 00:59:59;;;;;;;7.25;0.90;;;;;;;;;;5034412;28;20065;-54
2021/03/14 01:02:24;;;;;;;5.43;0.80;;;;;;;;;;5031824;28;20044;-56
2021/03/14 01:04:50;;;;;;;3.80;0.88;;;;;;;;;;5032220;28;20058;-55
2021/03/14 01:07:16;;;;;;;8.30;1.23;;;;;;;;;;5034395;28;20119;-53
2021/03/14 01:09:42;;;;;;;5.15;0.88;;;;;;;;;;5031219;28;20041;-55
2021/03/14 01:12:08;;;;;;;10.20;0.90;;;;;;;;;;5031834;28;20099;-54
2021/03/14 01:14:35;;;;;;;12.57;1.23;;;;;;;;;;5030873;28;20039;-54
2021/03/14 01:17:01;;;;;;;4.07;1.10;;;;;;;;;;5034427;28;20045;-56
2021/03/14 01:19:26;;;;;;;8.75;1.05;;;;;;;;;;5030686;28;20040;-56
2021/03/14 01:21:52;;;;;;;8.65;1.73;;;;;;;;;;5033524;28;20041;-54
2021/03/14 01:24:18;;;;;;;8.48;0.98;;;;;;;;;;5030378;28;20053;-54
2021/03/14 01:26:44;;;;;;;8.90;1.10;;;;;;;;;;5032964;28;20045;-56
2021/03/14 01:29:10;;;;;;;10.07;1.33;;;;;;;;;;5033601;28;20041;-55
2021/03/14 01:31:36;;;;;;;12.30;1.40;;;;;;;;;;5017089;28;20386;-54
2021/03/14 01:34:02;;;;;;;10.23;1.90;;;;;;;;;;5031802;28;20045;-53
2021/03/14 01:36:28;;;;;;;14.15;1.63;;;;;;;;;;5030151;28;20060;-55
2021/03/14 01:38:54;;;;;;;6.57;1.20;;;;;;;;;;5031801;28;20053;-53
2021/03/14 01:41:20;;;;;;;7.03;1.30;;;;;;;;;;5022786;28;20076;-57
2021/03/14 01:44:06;;;;;;;5.20;1.30;;;;;;;;;;5014387;28;20136;-54
2021/03/14 01:46:33;;;;;;;9.65;1.38;;;;;;;;;;5029353;28;20045;-52
2021/03/14 01:49:00;;;;;;;11.00;1.13;;;;;;;;;;5029911;28;20033;-55
2021/03/14 01:51:28;;;;;;;8.05;1.17;;;;;;;;;;5030528;28;20045;-55
2021/03/14 01:53:54;;;;;;;8.48;1.63;;;;;;;;;;5025837;28;20104;-56
2021/03/14 01:56:20;;;;;;;16.70;1.60;;;;;;;;;;5025239;28;20509;-54
2021/03/14 01:58:49;;;;;;;11.80;2.80;;;;;;;;;;5030871;28;20049;-54
2021/03/14 02:01:15;;;;;;;6.30;1.20;;;;;;;;;;5030880;28;20037;-56
2021/03/14 02:03:41;;;;;;;9.38;1.20;;;;;;;;;;5029008;28;20099;-55
2021/03/14 02:06:07;;;;;;;7.85;1.00;;;;;;;;;;5030144;28;20064;-55
2021/03/14 02:08:33;;;;;;;11.80;1.75;;;;;;;;;;5029871;28;20597;-56
2021/03/14 02:10:59;;;;;;;9.93;1.98;;;;;;;;;;5010997;28;20052;-54
2021/03/14 02:13:29;;;;;;;9.38;2.55;;;;;;;;;;5030930;28;20037;-54
2021/03/14 02:16:02;;;;;;;5.20;1.77;;;;;;;;;;5029017;28;20061;-56
2021/03/14 02:18:28;;;;;;;9.13;1.60;;;;;;;;;;5008080;28;21833;-56
2021/03/14 02:20:55;;;;;;;8.40;1.67;;;;;;;;;;5030723;28;20041;-55
2021/03/14 02:23:54;;;;;;;11.73;1.95;;;;;;;;;;5029868;28;20114;-56
2021/03/14 02:26:22;;;;;;;18.90;2.45;;;;;;;;;;4993415;28;20494;-56
2021/03/14 02:28:49;;;;;;;10.35;2.03;;;;;;;;;;5031884;28;20167;-56
2021/03/14 02:31:18;;;;;;;10.43;1.90;;;;;;;;;;5013371;28;20028;-54
2021/03/14 02:33:45;;;;;;;9.15;2.17;;;;;;;;;;5030300;28;20033;-57
2021/03/14 02:36:13;;;;;;;9.75;1.83;;;;;;;;;;5029710;28;20573;-55
2021/03/14 02:38:40;;;;;;;11.38;2.10;;;;;;;;;;5011588;28;20041;-56
2021/03/14 02:41:06;;;;;;;7.38;1.83;;;;;;;;;;5030979;28;20041;-55
2021/03/14 02:43:33;;;;;;;6.90;1.95;;;;;;;;;;5028790;28;20067;-54
2021/03/14 02:45:59;;;;;;;11.45;2.05;;;;;;;;;;5028876;28;20094;-54
2021/03/14 02:48:25;;;;;;;10.70;2.03;;;;;;;;;;5031586;28;20045;-52
2021/03/14 02:50:52;;;;;;;11.95;2.33;;;;;;;;;;5030203;28;20136;-55
2021/03/14 02:53:18;;;;;;;10.00;2.60;;;;;;;;;;5028286;28;20382;-54
2021/03/14 02:55:45;;;;;;;9.07;2.08;;;;;;;;;;5031271;28;20063;-57
2021/03/14 02:58:11;;;;;;;10.35;1.85;;;;;;;;;;5032481;28;20100;-55
2021/03/14 03:00:37;;;;;;;9.95;2.33;;;;;;;;;;5029198;28;20045;-53
2021/03/14 03:03:04;;;;;;;11.75;2.55;;;;;;;;;;5030129;28;20045;-56
2021/03/14 03:05:31;;;;;;;6.65;1.98;;;;;;;;;;5029496;28;20052;-55
2021/03/14 03:07:57;;;;;;;8.88;1.98;;;;;;;;;;5031268;28;20604;-53
2021/03/14 03:10:28;;;;;;;9.73;2.10;;;;;;;;;;5033135;28;20056;-53
2021/03/14 03:12:56;;;;;;;9.88;1.83;;;;;;;;;;5033762;28;20374;-53
2021/03/14 03:15:23;;;;;;;12.93;1.90;;;;;;;;;;5031341;28;20052;-54
2021/03/14 03:17:56;;;;;;;10.20;1.95;;;;;;;;;;5036231;28;20048;-55
2021/03/14 03:20:22;;;;;;;;;;;;;;;;;;5022833;28;20040;-55
2021/03/14 03:22:48;;;;;;;12.68;2.25;;;;;;;;;;5030592;28;19965;-55
2021/03/14 03:25:14;;;;;;;7.43;1.83;;;;;;;;;;5034518;28;20071;-54
2021/03/14 03:27:40;;;;;;;13.52;2.05;;;;;;;;;;5035102;28;20029;-54
2021/03/14 03:30:08;;;;;;;9.30;1.92;;;;;;;;;;5034124;28;20135;-57
2021/03/14 03:32:37;;;;;;;7.85;3.45;;;;;;;;;;5034994;28;20106;-57
2021/03/14 03:35:05;;;;;;;7.45;1.73;;;;;;;;;;5033320;28;20045;-57
2021/03/14 03:37:31;;;;;;;10.48;2.17;;;;;;;;;;5033752;28;20498;-57
2021/03/14 03:39:57;;;;;;;8.32;1.90;;;;;;;;;;5013511;28;20666;-57
2021/03/14 03:42:25;;;;;;;7.88;2.25;;;;;;;;;;5030757;28;20040;-55
2021/03/14 03:44:53;;;;;;;10.13;2.42;;;;;;;;;;5032940;28;20111;-56
2021/03/14 03:47:19;;;;;;;9.75;2.88;;;;;;;;;;5034625;28;20037;-55
2021/03/14 03:49:46;;;;;;;13.30;2.53;;;;;;;;;;5034077;28;20087;-55
2021/03/14 03:52:15;;;;;;;11.48;2.05;;;;;;;;;;5033610;28;20079;-57
2021/03/14 03:54:45;;;;;;;8.75;1.80;;;;;;;;;;5031334;28;20037;-55
2021/03/14 03:57:11;;;;;;;11.88;2.20;;;;;;;;;;5018376;28;20592;-55
2021/03/14 03:59:37;;;;;;;11.70;2.30;;;;;;;;;;5018551;28;20083;-55
2021/03/14 04:02:04;;;;;;;12.18;2.67;;;;;;;;;;5036252;28;20104;-55
2021/03/14 04:04:32;;;;;;;12.70;2.20;;;;;;;;;;5033706;28;20502;-54
2021/03/14 04:06:58;;;;;;;8.15;2.00;;;;;;;;;;5032958;28;20037;-56
2021/03/14 04:09:24;;;;;;;9.52;1.92;;;;;;;;;;5033275;28;20049;-56
2021/03/14 04:11:51;;;;;;;17.10;2.35;;;;;;;;;;5033993;28;20040;-52
2021/03/14 04:14:17;;;;;;;13.88;1.98;;;;;;;;;;5014088;28;20049;-55
2021/03/14 04:16:44;;;;;;;15.50;2.20;;;;;;;;;;5032690;28;20220;-54
2021/03/14 04:19:12;;;;;;;10.65;2.25;;;;;;;;;;5031653;28;20037;-56
2021/03/14 04:21:39;;;;;;;12.57;2.33;;;;;;;;;;5033935;28;20079;-53
2021/03/14 04:24:05;;;;;;;14.82;2.88;;;;;;;;;;5032192;28;20048;-53
2021/03/14 04:26:31;;;;;;;17.95;3.20;;;;;;;;;;5033776;28;20029;-54
2021/03/14 04:28:57;;;;;;;12.32;2.53;;;;;;;;;;5033104;28;20162;-52
2021/03/14 04:31:26;;;;;;;6.60;1.98;;;;;;;;;;5032907;28;20079;-53
2021/03/14 04:33:54;;;;;;;7.03;1.98;;;;;;;;;;5032894;28;20049;-54
2021/03/14 04:36:20;;;;;;;7.40;1.70;;;;;;;;;;5029830;28;20041;-51
2021/03/14 04:38:47;;;;;;;8.90;1.75;;;;;;;;;;5013864;28;20123;-54
2021/03/14 04:41:13;;;;;;;7.20;1.50;;;;;;;;;;5033947;28;20045;-56
2021/03/14 04:43:41;;;;;;;7.43;1.50;;;;;;;;;;5031504;28;20053;-57
2021/03/14 04:46:07;;;;;;;11.02;1.77;;;;;;;;;;5016016;28;20406;-55
2021/03/14 04:48:33;;;;;;;10.30;1.80;;;;;;;;;;5031282;28;20091;-55
2021/03/14 04:50:59;;;;;;;13.07;1.50;;;;;;;;;;5033261;28;20041;-52
2021/03/14 04:53:26;;;;;;;10.23;1.85;;;;;;;;;;5029723;28;20094;-54
2021/03/14 04:55:53;;;;;;;3.90;1.40;;;;;;;;;;5032606;28;20045;-56
2021/03/14 04:58:22;;;;;;;5.70;2.15;;;;;;;;;;5032878;28;20069;-53
2021/03/14 05:00:51;;;;;;;12.05;1.70;;;;;;;;;;5033838;28;20405;-52
2021/03/14 05:03:20;;;;;;;7.85;1.60;;;;;;;;;;5028897;28;20055;-56
2021/03/14 05:05:46;;;;;;;6.40;1.52;;;;;;;;;;5031241;28;20033;-55
2021/03/14 05:08:20;;;;;;;14.35;2.08;;;;;;;;;;5032109;28;20402;-54
2021/03/14 05:10:45;;;;;;;;;;;;;;;;;;5033392;28;20127;-55
2021/03/14 05:13:12;;;;;;;10.75;1.60;;;;;;;;;;5032946;28;20274;-53
2021/03/14 05:15:38;;;;;;;9.90;1.63;;;;;;;;;;5032070;28;20701;-56
2021/03/14 05:18:04;;;;;;;7.93;1.40;;;;;;;;;;5031017;28;20420;-57
2021/03/14 05:20:30;;;;;;;9.48;1.52;;;;;;;;;;5031331;28;20037;-56
2021/03/14 05:22:56;;;;;;;10.65;1.35;;;;;;;;;;5032388;28;20045;-56
2021/03/14 05:25:23;;;;;;;6.03;2.13;;;;;;;;;;5032022;28;20055;-56
2021/03/14 05:27:52;;;;;;;9.70;2.13;;;;;;;;;;5032298;28;20471;-52
2021/03/14 05:30:26;;;;;;;7.03;1.42;;;;;;;;;;5034015;28;20032;-55
2021/03/14 05:32:52;;;;;;;7.82;1.75;;;;;;;;;;5031223;28;20045;-56
2021/03/14 05:35:19;;;;;;;12.02;1.30;;;;;;;;;;5031327;28;20045;-54
2021/03/14 05:37:45;;;;;;;6.32;1.20;;;;;;;;;;5032674;28;20167;-56
2021/03/14 05:40:12;;;;;;;6.63;1.67;;;;;;;;;;5031534;28;20557;-55
2021/03/14 05:42:39;;;;;;;7.10;1.50;;;;;;;;;;5029917;28;20041;-56
2021/03/14 05:45:05;;;;;;;6.50;1.50;;;;;;;;;;5031361;28;20049;-53
2021/03/14 05:47:31;;;;;;;5.70;1.58;;;;;;;;;;5030468;28;20110;-56
2021/03/14 05:49:57;;;;;;;11.50;2.00;;;;;;;;;;5032319;28;20052;-54
2021/03/14 05:52:24;;;;;;;7.53;1.73;;;;;;;;;;5015537;28;20080;-55
2021/03/14 05:54:51;;;;;;;5.50;1.48;;;;;;;;;;5015943;28;20615;-55
2021/03/14 05:57:17;;;;;;;5.18;1.58;;;;;;;;;;5015793;28;20037;-56
2021/03/14 05:59:45;;;;;;;5.90;1.40;;;;;;;;;;5004992;28;20121;-55
2021/03/14 06:02:11;;;;;;;8.95;1.60;;;;;;;;;;5013618;28;20056;-56
2021/03/14 06:04:38;;;;;;;6.65;1.33;;;;;;;;;;5013352;28;20060;-51
2021/03/14 06:07:04;;;;;;;13.48;2.90;;;;;;;;;;5015832;28;20060;-54
2021/03/14 06:09:29;;;;;;;9.35;1.70;;;;;;;;;;5014037;28;20033;-54
2021/03/14 06:11:55;;;;;;;6.60;1.30;;;;;;;;;;5016968;28;20045;-55
2021/03/14 06:14:21;;;;;;;9.50;1.45;;;;;;;;;;5014000;28;20155;-54
2021/03/14 06:16:47;;;;;;;8.80;1.40;;;;;;;;;;4995800;28;20072;-55
2021/03/14 06:19:13;;;;;;;11.18;2.10;;;;;;;;;;5013661;28;20064;-54
2021/03/14 06:21:39;;;;;;;4.82;1.55;;;;;;;;;;5016030;28;20052;-56
2021/03/14 06:24:09;;;;;;;9.75;1.30;;;;;;;;;;5015056;28;20052;-53
2021/03/14 06:26:46;;;;;;;9.98;1.73;;;;;;;;;;5013049;28;20468;-55
2021/03/14 06:29:18;;;;;;;6.07;1.40;;;;;;;;;;5014766;28;20042;-55
2021/03/14 06:31:47;;;;;;;7.55;1.42;;;;;;;;;;5015435;28;20128;-55
2021/03/14 06:34:33;;;;;;;7.13;1.48;;;;;;;;;;5016729;28;20057;-54
2021/03/14 06:37:00;;;;;;;11.10;1.60;;;;;;;;;;5014067;28;20041;-53
2021/03/14 06:39:28;;;;;;;8.80;1.48;;;;;;;;;;5013810;28;20076;-54
2021/03/14 06:41:54;;;;;;;5.97;1.33;;;;;;;;;;5013848;28;20057;-53
2021/03/14 06:44:21;;;;;;;6.40;1.30;;;;;;;;;;5013098;28;20050;-53
2021/03/14 06:46:47;;;;;;;6.63;1.40;;;;;;;;;;5015113;28;20033;-52
2021/03/14 06:49:17;;;;;;;9.13;1.58;;;;;;;;;;5014997;28;20041;-50
2021/03/14 06:51:44;;;;;;;10.55;1.48;;;;;;;;;;5027242;28;20049;-51
2021/03/14 06:54:13;;;;;;;9.25;1.42;;;;;;;;;;5029690;28;20037;-53
2021/03/14 06:56:39;;;;;;;9.18;1.70;;;;;;;;;;5029914;28;22165;-52
2021/03/14 06:59:17;;;;;;;12.60;1.48;;;;;;;;;;5032612;28;20056;-53
2021/03/14 07:02:03;;;;;;;6.13;1.25;;;;;;;;;;5031332;28;20773;-52
2021/03/14 07:04:33;;;;;;;10.85;1.75;;;;;;;;;;5031027;28;20053;-55
2021/03/14 07:06:59;;;;;;;11.38;1.67;;;;;;;;;;5031288;28;20049;-55
2021/03/14 07:09:25;;;;;;;13.07;1.70;;;;;;;;;;5029612;28;20093;-55
2021/03/14 07:11:51;;;;;;;10.10;1.52;;;;;;;;;;5029702;28;20052;-54
2021/03/14 07:14:18;;;;;;;11.23;1.65;;;;;;;;;;5031660;28;20095;-54
2021/03/14 07:16:51;;;;;;;9.52;1.73;;;;;;;;;;5010518;28;20056;-54
2021/03/14 07:19:17;;;;;;;13.77;1.80;;;;;;;;;;5029992;28;20240;-51
2021/03/14 07:21:43;;;;;;;12.27;2.38;;;;;;;;;;5031663;28;20033;-52
2021/03/14 07:24:27;;;;;;;11.70;1.63;;;;;;;;;;5030027;28;20736;-51
2021/03/14 07:26:52;;;;;;;10.88;1.45;;;;;;;;;;5029873;28;20046;-52
2021/03/14 07:29:18;;;;;;;10.93;1.55;;;;;;;;;;5030408;28;20041;-54
2021/03/14 07:31:45;;;;;;;12.70;1.80;;;;;;;;;;5022497;28;20099;-53
2021/03/14 07:34:10;;;;;;;8.63;1.85;;;;;;;;;;5030417;28;20048;-53
2021/03/14 07:36:36;;;;;;;14.40;2.72;;;;;;;;;;5032390;28;20489;-56
2021/03/14 07:39:03;;;;;;;13.50;1.70;;;;;;;;;;5030152;28;20041;-55
2021/03/14 07:41:29;;;;;;;10.57;1.70;;;;;;;;;;5029561;28;20080;-56
2021/03/14 07:43:55;;;;;;;8.25;1.48;;;;;;;;;;5030499;28;20136;-54
2021/03/14 07:46:24;;;;;;;7.88;1.98;;;;;;;;;;5029086;28;20045;-56
2021/03/14 07:48:50;;;;;;;9.75;1.83;;;;;;;;;;5014174;28;20111;-54
2021/03/14 07:51:17;;;;;;;9.60;1.60;;;;;;;;;;5031922;28;20148;-55
2021/03/14 07:53:45;;;;;;;11.93;1.33;;;;;;;;;;5030180;28;20037;-54
2021/03/14 07:56:11;;;;;;;5.22;1.25;;;;;;;;;;5033925;28;20486;-54
2021/03/14 07:58:37;;;;;;;10.88;1.40;;;;;;;;;;5035231;28;20045;-55
2021/03/14 08:01:21;;;;;;;6.47;1.35;;;;;;;;;;5034722;28;20067;-54
2021/03/14 08:03:47;;;;;;;8.55;1.63;;;;;;;;;;5033190;28;20053;-55
2021/03/14 08:06:13;;;;;;;13.00;1.95;;;;;;;;;;5036401;28;20099;-55
2021/03/14 08:08:39;;;;;;;7.95;1.30;;;;;;;;;;5033225;28;20037;-54
2021/03/14 08:11:06;;;;;;;8.20;1.67;;;;;;;;;;5034061;28;20498;-54
2021/03/14 08:13:34;;;;;;;10.35;3.22;;;;;;;;;;5033809;28;20052;-56
2021/03/14 08:16:09;;;;;;;10.60;1.50;;;;;;;;;;5035309;28;20498;-56
2021/03/14 08:18:48;;;;;;;9.25;1.35;;;;;;;;;;5033406;28;20670;-56
2021/03/14 08:21:21;;;;;;;10.43;1.60;;;;;;;;;;5035849;28;20039;-55
2021/03/14 08:23:50;;;;;;;5.63;1.27;;;;;;;;;;5032580;28;20110;-55
2021/03/14 08:26:17;;;;;;;4.25;1.20;;;;;;;;;;5034443;28;20041;-57
2021/03/14 08:29:00;;;;;;;11.50;1.58;;;;;;;;;;5033943;28;20041;-53
2021/03/14 08:31:44;;;;;;;10.52;1.85;;;;;;;;;;5033607;28;20069;-57
2021/03/14 08:34:13;;;;;;;7.05;1.70;;;;;;;;;;5032912;28;20508;-54
2021/03/14 08:36:43;;;;;;;8.15;2.33;;;;;;;;;;5032765;28;20044;-53
2021/03/14 08:39:19;;;;;;;5.55;1.90;;;;;;;;;;5031624;28;20072;-54
2021/03/14 08:41:50;;;;;;;7.47;2.10;;;;;;;;;;5034347;28;20202;-55
2021/03/14 08:44:35;;;;;;;4.15;1.92;;;;;;;;;;5033525;28;20553;-52
2021/03/14 08:47:02;;;;;;;7.00;1.70;;;;;;;;;;5028470;28;20044;-54
2021/03/14 08:49:29;;;;;;;14.40;2.00;;;;;;;;;;5031966;28;20531;-54
2021/03/14 08:51:55;;;;;;;4.07;1.45;;;;;;;;;;5034486;28;20342;-53
2021/03/14 08:54:31;;;;;;;5.60;1.30;;;;;;;;;;5030571;28;20501;-56
2021/03/14 08:56:58;;;;;;;7.13;1.55;;;;;;;;;;5023938;28;20043;-53
2021/03/14 08:59:24;;;;;;;4.72;1.23;;;;;;;;;;5033066;28;20047;-53
2021/03/14 09:02:08;;;;;;;7.95;1.30;;;;;;;;;;5032800;28;20040;-54
2021/03/14 09:04:34;;;;;;;;;;;;;;;;;;5034102;28;20045;-53
2021/03/14 09:07:07;;;;;;;9.23;1.48;;;;;;;;;;5031539;28;19912;-55
2021/03/14 09:09:33;;;;;;;6.97;1.35;;;;;;;;;;5030376;28;20041;-55
2021/03/14 09:12:03;;;;;;;6.53;1.77;;;;;;;;;;5034703;28;20049;-54
2021/03/14 09:14:43;;;;;;;7.63;1.40;;;;;;;;;;5030900;28;20148;-57
2021/03/14 09:17:13;;;;;;;6.85;1.20;;;;;;;;;;5032689;28;20559;-53
2021/03/14 09:19:42;;;;;;;7.43;1.50;;;;;;;;;;5031976;28;20171;-54
2021/03/14 09:22:08;;;;;;;5.68;1.35;;;;;;;;;;5030967;28;20036;-55
2021/03/14 09:24:35;;;;;;;6.70;1.50;;;;;;;;;;5032932;28;20090;-54
2021/03/14 09:27:09;;;;;;;8.73;1.60;;;;;;;;;;5032903;28;20052;-55
2021/03/14 09:29:35;;;;;;;6.85;1.58;;;;;;;;;;5032123;28;20032;-55
2021/03/14 09:32:02;;;;;;;7.97;1.50;;;;;;;;;;5033099;28;20098;-56
2021/03/14 09:34:30;;;;;;;5.80;1.55;;;;;;;;;;5031427;28;20037;-55
2021/03/14 09:36:56;;;;;;;10.38;1.60;;;;;;;;;;5032219;28;20065;-54
2021/03/14 09:39:25;;;;;;;6.25;1.60;;;;;;;;;;5031998;28;20774;-55
2021/03/14 09:41:51;;;;;;;9.27;1.83;;;;;;;;;;5015783;28;20069;-53
2021/03/14 09:44:18;;;;;;;9.23;2.78;;;;;;;;;;5033767;28;20475;-56
2021/03/14 09:47:02;;;;;;;5.82;1.90;;;;;;;;;;5033540;28;20091;-56
2021/03/14 09:49:29;;;;;;;8.10;2.17;;;;;;;;;;5034044;28;20040;-54
2021/03/14 09:51:58;;;;;;;9.18;2.15;;;;;;;;;;5034372;28;20052;-56
2021/03/14 09:54:24;;;;;;;6.53;1.90;;;;;;;;;;5031601;28;20258;-57
2021/03/14 09:56:51;;;;;;;7.60;1.70;;;;;;;;;;5021569;28;20040;-54
2021/03/14 09:59:21;;;;;;;11.40;1.60;;;;;;;;;;5032913;28;20079;-55
2021/03/14 10:01:47;;;;;;;7.78;1.60;;;;;;;;;;5032657;28;20071;-53
2021/03/14 10:04:13;;;;;;;9.88;1.60;;;;;;;;;;5033699;28;20808;-54
2021/03/14 10:06:39;;;;;;;8.63;1.27;;;;;;;;;;5019958;28;20050;-56
2021/03/14 10:09:05;;;;;;;6.53;1.70;;;;;;;;;;5032993;28;20073;-52
2021/03/14 10:11:31;;;;;;;6.22;1.88;;;;;;;;;;5032639;28;20575;-56
2021/03/14 10:13:57;;;;;;;9.32;2.40;;;;;;;;;;5033329;28;20040;-55
2021/03/14 10:16:24;;;;;;;8.25;2.78;;;;;;;;;;5031592;28;20047;-55
2021/03/14 10:18:50;;;;;;;13.32;2.33;;;;;;;;;;5032701;28;20206;-54
2021/03/14 10:21:25;;;;;;;5.13;2.42;;;;;;;;;;5032138;28;20075;-55
2021/03/14 10:23:51;;;;;;;4.85;1.45;;;;;;;;;;5031614;28;20518;-55
2021/03/14 10:26:17;;;;;;;6.28;1.55;;;;;;;;;;5035319;28;20041;-51
2021/03/14 10:28:45;;;;;;;6.57;1.75;;;;;;;;;;5012765;28;20125;-50
2021/03/14 10:31:12;;;;;;;8.85;2.63;;;;;;;;;;5031365;28;20041;-51
2021/03/14 10:33:39;;;;;;;7.70;2.28;;;;;;;;;;5010504;28;20056;-55
2021/03/14 10:36:12;;;;;;;6.95;2.45;;;;;;;;;;5033735;28;20040;-55
2021/03/14 10:38:42;;;;;;;10.18;2.38;;;;;;;;;;5029994;28;20044;-55
2021/03/14 10:41:09;;;;;;;10.48;2.13;;;;;;;;;;5033665;28;20370;-54
2021/03/14 10:43:43;;;;;;;8.20;1.70;;;;;;;;;;5028945;28;20453;-56
2021/03/14 10:46:08;;;;;;;;;;;;;;;;;;5033090;28;20102;-54
2021/03/14 10:48:34;;;;;;;9.85;1.70;;;;;;;;;;5031766;28;19913;-53
2021/03/14 10:51:07;;;;;;;14.13;2.10;;;;;;;;;;5032259;28;20141;-52
2021/03/14 10:53:33;;;;;;;6.95;1.90;;;;;;;;;;5012350;28;20032;-55
2021/03/14 10:56:02;;;;;;;6.97;1.92;;;;;;;;;;5010318;28;20044;-53
2021/03/14 10:58:34;;;;;;;5.05;1.88;;;;;;;;;;5030859;28;20629;-55
2021/03/14 11:01:01;;;;;;;8.80;1.57;;;;;;;;;;5010002;28;20044;-55
2021/03/14 11:03:29;;;;;;;7.55;1.52;;;;;;;;;;5030065;28;20049;-53
2021/03/14 11:06:08;;;;;;;8.60;1.80;;;;;;;;;;5031969;28;20057;-54
2021/03/14 11:08:46;;;;;;;7.53;1.90;;;;;;;;;;5031379;28;20067;-51
2021/03/14 11:11:12;;;;;;;5.72;1.58;;;;;;;;;;5031796;28;20198;-54
2021/03/14 11:13:38;;;;;;;5.07;1.38;;;;;;;;;;5031248;28;20358;-56
2021/03/14 11:16:08;;;;;;;5.45;1.30;;;;;;;;;;5032198;28;20037;-54
2021/03/14 11:18:34;;;;;;;6.90;1.92;;;;;;;;;;5031268;28;20134;-54
2021/03/14 11:21:02;;;;;;;10.38;1.80;;;;;;;;;;5032357;28;20141;-54
2021/03/14 11:23:27;;;;;;;8.82;2.47;;;;;;;;;;5030256;28;20064;-55
2021/03/14 11:25:54;;;;;;;6.72;1.83;;;;;;;;;;5031316;28;20445;-54
2021/03/14 11:28:20;;;;;;;9.95;1.80;;;;;;;;;;5030596;28;20040;-55
2021/03/14 11:30:46;;;;;;;5.40;2.30;;;;;;;;;;5036085;28;20032;-54
2021/03/14 11:33:12;;;;;;;9.50;3.22;;;;;;;;;;5035696;28;21123;-51
2021/03/14 11:35:38;;;;;;;12.32;3.65;;;;;;;;;;5034263;28;20051;-56
2021/03/14 11:38:04;;;;;;;11.60;3.25;;;;;;;;;;5036051;28;20505;-51
2021/03/14 11:40:30;;;;;;;9.07;3.67;;;;;;;;;;5034900;28;20104;-55
2021/03/14 11:42:56;;;;;;;12.98;2.85;;;;;;;;;;5035536;28;20029;-54
2021/03/14 11:45:22;;;;;;;7.55;2.72;;;;;;;;;;5035143;28;20049;-54
2021/03/14 11:47:48;;;;;;;7.47;2.35;;;;;;;;;;5035873;28;20057;-52
2021/03/14 11:50:14;;;;;;;7.40;2.88;;;;;;;;;;5033324;28;20124;-55
2021/03/14 11:52:42;;;;;;;10.93;2.65;;;;;;;;;;5033932;28;20044;-55
2021/03/14 11:55:08;;;;;;;5.70;2.10;;;;;;;;;;5036045;28;20079;-50
2021/03/14 11:57:34;;;;;;;11.43;2.53;;;;;;;;;;5034825;28;20052;-52
2021/03/14 12:00:02;;;;;;;13.65;2.65;;;;;;;;;;4995836;28;20045;-55
2021/03/14 12:02:28;;;;;;;14.18;2.85;;;;;;;;;;5030459;28;20709;-53
2021/03/14 12:04:54;;;;;;;7.90;2.90;;;;;;;;;;5036016;28;20053;-54
2021/03/14 12:07:20;;;;;;;9.63;3.28;;;;;;;;;;5032312;28;20033;-52
2021/03/14 12:09:46;;;;;;;15.02;2.40;;;;;;;;;;5034322;28;20065;-56
2021/03/14 12:12:12;;;;;;;5.95;2.15;;;;;;;;;;5034303;28;20115;-55
2021/03/14 12:14:40;;;;;;;11.02;2.65;;;;;;;;;;5036871;28;20458;-54
2021/03/14 12:17:06;;;;;;;7.57;2.30;;;;;;;;;;5035287;28;20068;-53
2021/03/14 12:19:32;;;;;;;7.38;1.67;;;;;;;;;;5034520;28;20037;-55
2021/03/14 12:21:57;;;;;;;7.35;1.80;;;;;;;;;;5013110;28;20040;-53
2021/03/14 12:24:23;;;;;;;7.05;1.48;;;;;;;;;;5016398;28;20053;-55
2021/03/14 12:26:49;;;;;;;4.78;1.60;;;;;;;;;;5035267;28;20122;-55
2021/03/14 12:29:15;;;;;;;8.02;2.05;;;;;;;;;;5034416;28;20522;-52
2021/03/14 12:31:41;;;;;;;11.38;1.70;;;;;;;;;;5033825;28;20033;-55
2021/03/14 12:34:07;;;;;;;4.35;1.55;;;;;;;;;;5033947;28;20048;-56
2021/03/14 12:36:33;;;;;;;5.03;1.73;;;;;;;;;;5033440;28;20126;-55
2021/03/14 12:38:58;;;;;;;10.20;1.70;;;;;;;;;;5034726;28;20160;-55
2021/03/14 12:41:24;;;;;;;9.38;1.85;;;;;;;;;;5032712;28;20083;-56
2021/03/14 12:43:50;;;;;;;5.90;1.70;;;;;;;;;;5016681;28;20057;-56
2021/03/14 12:46:16;;;;;;;6.32;1.73;;;;;;;;;;5034436;28;20128;-54
2021/03/14 12:48:42;;;;;;;9.27;1.98;;;;;;;;;;5033076;28;20056;-55
2021/03/14 12:51:08;;;;;;;8.98;1.58;;;;;;;;;;5032905;28;20040;-52
2021/03/14 12:53:34;;;;;;;5.57;1.65;;;;;;;;;;5034761;28;20413;-53
2021/03/14 12:56:00;;;;;;;10.18;1.90;;;;;;;;;;5036968;28;20578;-54
2021/03/14 12:58:25;;;;;;;7.65;1.60;;;;;;;;;;5035720;28;20051;-50
2021/03/14 13:00:52;;;;;;;11.88;1.98;;;;;;;;;;5035350;28;20403;-53
2021/03/14 13:03:18;;;;;;;9.43;2.83;;;;;;;;;;5033087;28;20105;-54
2021/03/14 13:05:44;;;;;;;8.35;1.80;;;;;;;;;;5015171;28;20826;-54
2021/03/14 13:08:09;;;;;;;6.63;1.70;;;;;;;;;;5034385;28;20033;-55
2021/03/14 13:10:36;;;;;;;8.50;1.38;;;;;;;;;;5033820;28;20036;-53
2021/03/14 13:13:03;;;;;;;9.98;2.00;;;;;;;;;;5032882;28;20566;-56
2021/03/14 13:15:29;;;;;;;7.35;1.73;;;;;;;;;;5031832;28;20041;-52
2021/03/14 13:17:55;;;;;;;8.20;1.90;;;;;;;;;;5034191;28;20462;-56
2021/03/14 13:20:21;;;;;;;7.50;1.80;;;;;;;;;;5033110;28;20047;-55
2021/03/14 13:22:47;;;;;;;9.35;2.03;;;;;;;;;;5033498;28;20440;-54
2021/03/14 13:25:13;;;;;;;7.30;1.58;;;;;;;;;;5032981;28;20071;-55
2021/03/14 13:27:39;;;;;;;11.80;2.15;;;;;;;;;;5032605;28;20053;-55
2021/03/14 13:30:07;;;;;;;6.10;1.77;;;;;;;;;;5013385;28;20513;-54
2021/03/14 13:32:32;;;;;;;5.97;1.60;;;;;;;;;;5031988;28;20045;-55
2021/03/14 13:34:59;;;;;;;7.78;1.52;;;;;;;;;;5033902;28;20036;-54
2021/03/14 13:37:24;;;;;;;7.70;2.10;;;;;;;;;;5032922;28;20144;-55
2021/03/14 13:39:50;;;;;;;13.13;1.85;;;;;;;;;;5034173;28;20712;-55
2021/03/14 13:42:18;;;;;;;8.15;1.80;;;;;;;;;;5033747;28;20061;-56
2021/03/14 13:44:44;;;;;;;12.27;1.60;;;;;;;;;;5033397;28;20434;-55
2021/03/14 13:47:10;;;;;;;9.68;2.05;;;;;;;;;;5034210;28;20041;-54
2021/03/14 13:49:36;;;;;;;10.55;2.20;;;;;;;;;;5016558;28;20029;-53
2021/03/14 13:52:03;;;;;;;12.18;2.10;;;;;;;;;;5033405;28;20564;-52
2021/03/14 13:54:29;;;;;;;14.27;2.10;;;;;;;;;;5033113;28;20037;-52
2021/03/14 13:56:55;;;;;;;7.20;2.00;;;;;;;;;;5032934;28;20032;-52
2021/03/14 13:59:21;;;;;;;13.32;2.00;;;;;;;;;;5034050;28;20049;-55
2021/03/14 14:01:47;;;;;;;9.52;2.10;;;;;;;;;;5035136;28;20041;-56
2021/03/14 14:04:14;;;;;;;12.18;2.20;;;;;;;;;;5029814;28;20060;-54
2021/03/14 14:06:41;;;;;;;14.27;2.03;;;;;;;;;;5032621;28;20491;-55
2021/03/14 14:09:07;;;;;;;19.02;2.70;;;;;;;;;;5034338;28;20087;-54
2021/03/14 14:11:33;;;;;;;7.93;2.15;;;;;;;;;;5031755;28;20037;-52
2021/03/14 14:13:59;;;;;;;13.85;2.42;;;;;;;;;;5032920;28;20162;-55
2021/03/14 14:16:25;;;;;;;11.73;2.13;;;;;;;;;;5031873;28;20037;-54
2021/03/14 14:18:51;;;;;;;10.10;2.50;;;;;;;;;;5033701;28;20521;-53
2021/03/14 14:21:17;;;;;;;10.63;3.53;;;;;;;;;;5033329;28;20088;-55
2021/03/14 14:23:44;;;;;;;14.18;2.65;;;;;;;;;;5032615;28;20501;-51
2021/03/14 14:26:09;;;;;;;16.25;3.40;;;;;;;;;;5034399;28;20979;-54
2021/03/14 14:28:35;;;;;;;11.48;2.75;;;;;;;;;;5032325;28;20673;-52
2021/03/14 14:31:01;;;;;;;14.77;3.13;;;;;;;;;;5033915;28;20611;-52
2021/03/14 14:33:27;;;;;;;11.80;3.08;;;;;;;;;;5029574;28;20842;-54
2021/03/14 14:35:53;;;;;;;13.32;3.95;;;;;;;;;;5032476;28;20033;-56
2021/03/14 14:38:19;;;;;;;10.65;3.22;;;;;;;;;;5030902;28;20178;-55
2021/03/14 14:40:45;;;;;;;14.80;3.10;;;;;;;;;;5009347;28;20040;-53
2021/03/14 14:43:11;;;;;;;13.45;2.30;;;;;;;;;;5030473;28;20508;-53